Nedrow, New York
Current Conditions -  °F | °C
As of 2:54 AM on Thursday 29 Jan 2015 (Local Time) from KSYR Reporting Station
Scattered Clouds Scattered Clouds  
Wind Chill: -8°   Ceiling: Unl
Heat Index:   Visibility: 10mi
Dew Point:   Wind: 6mph
Humidity: 87%   Direction: 90°E
Pressure: 30.3"   Gusts: NA
Location:  42.98°N, 76.14°W
Report Text: KSYR 290754Z 09005KT 10SM SCT250 M16/M18 A3030 RMK AO2 SLP266 T11611178 $
Loading
Personal Weather Stations






























Interactive Weather Map New forecast layout! Learn more

10-Day Weather Forecast

Advertisements
Track Severe Weather on mobile